Time;durP1;ratioP1;P1;durP2;ratioP2;P2;SDS_P1;SDS_P2;PMS_P1;PMS_P2;Temp;Humidity;BMP_temperature;BMP_pressure;BME280_temperature;BME280_humidity;BME280_pressure;Samples;Min_cycle;Max_cycle;Signal;HPM_P1;HPM_P2
2022/03/06 00:01:17;;;;;;;33.28;15.13;;;;;;;;;;5093944;28;20097;-79
2022/03/06 00:03:47;;;;;;;41.45;14.95;;;;;;;;;;5094110;28;20359;-79
2022/03/06 00:06:13;;;;;;;31.92;14.70;;;;;;;;;;5094511;28;20052;-79
2022/03/06 00:08:40;;;;;;;33.17;15.25;;;;;;;;;;5094843;28;20035;-78
2022/03/06 00:11:06;;;;;;;36.38;15.18;;;;;;;;;;5095112;28;20020;-79
2022/03/06 00:13:33;;;;;;;36.38;14.95;;;;;;;;;;5087150;28;20031;-79
2022/03/06 00:15:59;;;;;;;30.13;14.18;;;;;;;;;;5079045;28;20044;-79
2022/03/06 00:18:25;;;;;;;29.48;13.93;;;;;;;;;;5074488;28;20020;-78
2022/03/06 00:20:53;;;;;;;32.92;15.27;;;;;;;;;;5072241;28;20024;-79
2022/03/06 00:23:19;;;;;;;32.85;14.73;;;;;;;;;;5089989;28;20021;-78
2022/03/06 00:25:45;;;;;;;36.42;15.48;;;;;;;;;;5092663;28;20024;-78
2022/03/06 00:28:12;;;;;;;29.90;14.80;;;;;;;;;;5093924;28;20028;-78
2022/03/06 00:30:38;;;;;;;29.35;13.93;;;;;;;;;;5092335;28;20043;-78
2022/03/06 00:33:07;;;;;;;28.52;13.93;;;;;;;;;;5094626;28;20024;-78
2022/03/06 00:35:33;;;;;;;29.67;14.35;;;;;;;;;;5094281;28;20454;-78
2022/03/06 00:38:00;;;;;;;30.65;14.15;;;;;;;;;;5093751;28;20024;-78
2022/03/06 00:40:26;;;;;;;31.55;14.25;;;;;;;;;;5094309;28;20089;-78
2022/03/06 00:42:52;;;;;;;29.25;13.48;;;;;;;;;;5094442;28;20028;-78
2022/03/06 00:45:19;;;;;;;29.00;14.55;;;;;;;;;;5094087;28;20039;-78
2022/03/06 00:47:45;;;;;;;29.70;14.40;;;;;;;;;;5080392;28;20123;-79
2022/03/06 00:50:11;;;;;;;29.58;14.55;;;;;;;;;;5073876;28;20024;-78
2022/03/06 00:52:37;;;;;;;31.27;14.82;;;;;;;;;;5072573;28;20031;-78
2022/03/06 00:55:04;;;;;;;36.53;14.77;;;;;;;;;;5073741;28;20107;-78
2022/03/06 00:57:30;;;;;;;35.42;14.98;;;;;;;;;;5074131;28;20021;-78
2022/03/06 00:59:56;;;;;;;32.22;14.43;;;;;;;;;;5072502;28;20039;-79
2022/03/06 01:02:22;;;;;;;29.48;13.95;;;;;;;;;;5073979;28;20103;-79
2022/03/06 01:04:49;;;;;;;29.23;14.60;;;;;;;;;;5073852;28;20024;-78
2022/03/06 01:07:15;;;;;;;28.38;13.75;;;;;;;;;;5073737;28;20384;-78
2022/03/06 01:09:41;;;;;;;32.03;14.52;;;;;;;;;;5073668;28;20182;-78
2022/03/06 01:12:07;;;;;;;31.60;15.23;;;;;;;;;;5073757;28;20071;-78
2022/03/06 01:14:33;;;;;;;31.02;14.63;;;;;;;;;;5073756;28;20040;-78
2022/03/06 01:16:59;;;;;;;27.80;13.15;;;;;;;;;;5073685;28;20092;-78
2022/03/06 01:19:25;;;;;;;34.35;14.30;;;;;;;;;;5073494;28;20020;-79
2022/03/06 01:21:51;;;;;;;28.23;13.85;;;;;;;;;;5073574;28;20478;-78
2022/03/06 01:24:17;;;;;;;30.58;14.48;;;;;;;;;;5072339;28;20024;-78
2022/03/06 01:26:43;;;;;;;28.83;13.77;;;;;;;;;;5073594;28;20028;-78
2022/03/06 01:29:09;;;;;;;30.40;14.88;;;;;;;;;;5080391;28;20400;-78
2022/03/06 01:31:35;;;;;;;27.08;14.45;;;;;;;;;;5093956;28;20077;-79
2022/03/06 01:34:03;;;;;;;26.15;13.05;;;;;;;;;;5093771;28;20027;-79
2022/03/06 01:36:30;;;;;;;26.17;13.35;;;;;;;;;;5093865;28;20510;-79
2022/03/06 01:38:56;;;;;;;28.33;13.07;;;;;;;;;;5092192;28;20415;-78
2022/03/06 01:41:22;;;;;;;25.48;13.25;;;;;;;;;;5093580;28;20457;-78
2022/03/06 01:43:48;;;;;;;26.90;13.43;;;;;;;;;;5093604;28;20032;-78
2022/03/06 01:46:14;;;;;;;28.25;13.45;;;;;;;;;;5092897;28;20043;-79
2022/03/06 01:48:40;;;;;;;29.20;13.43;;;;;;;;;;5073240;28;20123;-79
2022/03/06 01:51:06;;;;;;;29.85;13.30;;;;;;;;;;5073330;28;20028;-79
2022/03/06 01:53:32;;;;;;;28.50;12.77;;;;;;;;;;5073407;28;20107;-78
2022/03/06 01:55:58;;;;;;;26.05;13.65;;;;;;;;;;5072041;28;20056;-78
2022/03/06 01:58:24;;;;;;;26.83;13.75;;;;;;;;;;5073054;28;20032;-78
2022/03/06 02:00:50;;;;;;;25.00;13.05;;;;;;;;;;5073277;28;20083;-79
2022/03/06 02:03:20;;;;;;;27.50;13.27;;;;;;;;;;5073163;28;20039;-78
2022/03/06 02:05:46;;;;;;;26.30;12.32;;;;;;;;;;5072890;28;20486;-78
2022/03/06 02:08:12;;;;;;;26.70;13.63;;;;;;;;;;5073032;28;20024;-78
2022/03/06 02:10:38;;;;;;;24.02;12.65;;;;;;;;;;5073325;28;20067;-78
2022/03/06 02:13:05;;;;;;;23.13;12.10;;;;;;;;;;5072957;28;20023;-78
2022/03/06 02:15:31;;;;;;;22.83;11.80;;;;;;;;;;5073025;28;20044;-78
2022/03/06 02:17:57;;;;;;;24.67;12.68;;;;;;;;;;5073177;28;20021;-78
2022/03/06 02:20:25;;;;;;;24.98;12.60;;;;;;;;;;5071367;28;20021;-78
2022/03/06 02:22:52;;;;;;;24.95;11.73;;;;;;;;;;5085856;28;20039;-78
2022/03/06 02:25:19;;;;;;;27.52;13.10;;;;;;;;;;5092988;28;20113;-78
2022/03/06 02:27:46;;;;;;;27.50;13.70;;;;;;;;;;5093067;28;20487;-78
2022/03/06 02:30:15;;;;;;;27.00;12.43;;;;;;;;;;5092795;28;20114;-78
2022/03/06 02:32:41;;;;;;;26.70;13.65;;;;;;;;;;5092838;28;20024;-78
2022/03/06 02:35:08;;;;;;;28.75;13.27;;;;;;;;;;5093024;28;20028;-78
2022/03/06 02:37:34;;;;;;;25.60;12.52;;;;;;;;;;5093041;28;20016;-78
2022/03/06 02:40:02;;;;;;;24.90;12.05;;;;;;;;;;5093033;28;20042;-78
2022/03/06 02:42:29;;;;;;;25.45;13.02;;;;;;;;;;5092878;28;20024;-78
2022/03/06 02:44:56;;;;;;;25.85;12.68;;;;;;;;;;5092895;28;20035;-78
2022/03/06 02:47:22;;;;;;;25.85;13.02;;;;;;;;;;5085419;28;20487;-79
2022/03/06 02:49:48;;;;;;;30.13;14.55;;;;;;;;;;5076451;28;20435;-78
2022/03/06 02:52:14;;;;;;;29.67;13.77;;;;;;;;;;5076568;28;20074;-78
2022/03/06 02:54:40;;;;;;;28.40;12.63;;;;;;;;;;5076411;28;20112;-78
2022/03/06 02:57:07;;;;;;;27.67;13.32;;;;;;;;;;5076283;28;20089;-78
2022/03/06 02:59:34;;;;;;;31.42;14.05;;;;;;;;;;5074963;28;20047;-78
2022/03/06 03:02:00;;;;;;;36.20;14.57;;;;;;;;;;5076180;28;20036;-78
2022/03/06 03:04:26;;;;;;;29.50;13.70;;;;;;;;;;5076158;28;20121;-78
2022/03/06 03:06:52;;;;;;;28.25;13.55;;;;;;;;;;5075133;28;20396;-79
2022/03/06 03:09:22;;;;;;;27.35;13.63;;;;;;;;;;5076171;28;20066;-78
2022/03/06 03:11:50;;;;;;;26.70;12.75;;;;;;;;;;5074838;28;20032;-78
2022/03/06 03:14:17;;;;;;;27.83;14.15;;;;;;;;;;5075746;28;20044;-78
2022/03/06 03:16:43;;;;;;;30.90;12.95;;;;;;;;;;5075805;28;20025;-78
2022/03/06 03:19:09;;;;;;;25.98;11.98;;;;;;;;;;5074893;28;20012;-78
2022/03/06 03:21:35;;;;;;;30.40;12.25;;;;;;;;;;5078395;28;20059;-79
2022/03/06 03:24:01;;;;;;;27.88;12.85;;;;;;;;;;5096303;28;20028;-78
2022/03/06 03:26:27;;;;;;;31.02;13.18;;;;;;;;;;5096107;28;20107;-79
2022/03/06 03:28:53;;;;;;;25.17;12.20;;;;;;;;;;5094582;28;20051;-78
2022/03/06 03:31:19;;;;;;;25.92;12.98;;;;;;;;;;5095742;28;20024;-78
2022/03/06 03:33:46;;;;;;;24.52;12.20;;;;;;;;;;5096031;28;20121;-78
2022/03/06 03:36:12;;;;;;;26.45;12.20;;;;;;;;;;5094529;28;20054;-78
2022/03/06 03:38:39;;;;;;;26.67;12.75;;;;;;;;;;5095536;28;20024;-78
2022/03/06 03:41:06;;;;;;;33.40;13.68;;;;;;;;;;5095666;28;20107;-78
2022/03/06 03:43:32;;;;;;;26.90;12.68;;;;;;;;;;5095491;28;20025;-78
2022/03/06 03:45:58;;;;;;;22.55;11.38;;;;;;;;;;5095784;28;20019;-78
2022/03/06 03:48:28;;;;;;;29.73;13.02;;;;;;;;;;5090387;28;20131;-78
2022/03/06 03:50:54;;;;;;;27.55;12.68;;;;;;;;;;5073571;28;20475;-78
2022/03/06 03:53:21;;;;;;;26.48;13.23;;;;;;;;;;5075119;28;20082;-77
2022/03/06 03:55:47;;;;;;;26.20;12.77;;;;;;;;;;5075345;28;20058;-78
2022/03/06 03:58:13;;;;;;;22.40;12.52;;;;;;;;;;5074125;28;20043;-78
2022/03/06 04:00:39;;;;;;;27.20;13.57;;;;;;;;;;5075044;28;20032;-78
2022/03/06 04:03:05;;;;;;;26.95;13.20;;;;;;;;;;5075173;28;20780;-79
2022/03/06 04:05:31;;;;;;;22.40;12.15;;;;;;;;;;5075388;28;20032;-80
2022/03/06 04:07:57;;;;;;;26.65;13.38;;;;;;;;;;5073961;28;20028;-80
2022/03/06 04:10:23;;;;;;;25.52;12.38;;;;;;;;;;5074849;28;20032;-79
2022/03/06 04:12:49;;;;;;;25.27;12.93;;;;;;;;;;5075059;28;20455;-79
2022/03/06 04:15:15;;;;;;;26.08;12.10;;;;;;;;;;5075232;28;20024;-79
2022/03/06 04:17:41;;;;;;;24.27;12.23;;;;;;;;;;5074894;28;20379;-80
2022/03/06 04:20:08;;;;;;;23.10;12.23;;;;;;;;;;5073459;28;20443;-79
2022/03/06 04:22:34;;;;;;;25.73;12.43;;;;;;;;;;5085347;28;20020;-79
2022/03/06 04:25:00;;;;;;;23.42;12.63;;;;;;;;;;5094845;28;20028;-80
2022/03/06 04:27:26;;;;;;;23.88;12.77;;;;;;;;;;5095078;28;20042;-79
2022/03/06 04:29:52;;;;;;;24.67;12.95;;;;;;;;;;5095018;28;20050;-79
2022/03/06 04:32:18;;;;;;;23.95;12.77;;;;;;;;;;5094838;28;20031;-79
2022/03/06 04:34:44;;;;;;;25.23;13.02;;;;;;;;;;5093646;28;20020;-78
2022/03/06 04:37:11;;;;;;;27.40;13.43;;;;;;;;;;5094979;28;20020;-78
2022/03/06 04:39:37;;;;;;;24.73;13.15;;;;;;;;;;5095010;28;20020;-78
2022/03/06 04:42:03;;;;;;;25.13;11.90;;;;;;;;;;5095302;28;20028;-78
2022/03/06 04:44:29;;;;;;;25.63;12.95;;;;;;;;;;5094838;28;20043;-78
2022/03/06 04:46:55;;;;;;;26.45;12.48;;;;;;;;;;5090245;28;20025;-79
2022/03/06 04:49:21;;;;;;;25.52;12.70;;;;;;;;;;5074513;28;20418;-78
2022/03/06 04:51:47;;;;;;;27.60;13.98;;;;;;;;;;5074374;28;20036;-79
2022/03/06 04:54:13;;;;;;;26.23;13.27;;;;;;;;;;5074300;28;20025;-78
2022/03/06 04:56:39;;;;;;;21.50;11.63;;;;;;;;;;5074277;28;20036;-79
2022/03/06 04:59:05;;;;;;;29.05;13.70;;;;;;;;;;5072656;28;20029;-79
2022/03/06 05:01:31;;;;;;;25.15;13.95;;;;;;;;;;5074664;28;20031;-79
2022/03/06 05:03:57;;;;;;;26.13;13.43;;;;;;;;;;5074461;28;20466;-79
2022/03/06 05:06:23;;;;;;;27.73;13.90;;;;;;;;;;5072870;28;20036;-79
2022/03/06 05:08:49;;;;;;;23.42;12.80;;;;;;;;;;5073489;28;20036;-79
2022/03/06 05:11:16;;;;;;;26.65;13.02;;;;;;;;;;5072765;28;20159;-79
2022/03/06 05:13:42;;;;;;;25.00;13.05;;;;;;;;;;5074090;28;20031;-79
2022/03/06 05:16:09;;;;;;;27.73;13.02;;;;;;;;;;5073552;28;20024;-79
2022/03/06 05:18:35;;;;;;;29.05;13.85;;;;;;;;;;5072190;28;20158;-79
2022/03/06 05:21:01;;;;;;;22.65;12.93;;;;;;;;;;5072251;28;20058;-79
2022/03/06 05:23:27;;;;;;;22.50;12.50;;;;;;;;;;5073209;28;20116;-80
2022/03/06 05:25:54;;;;;;;26.77;14.43;;;;;;;;;;5073935;28;20423;-79
2022/03/06 05:28:20;;;;;;;25.70;13.38;;;;;;;;;;5073448;28;20020;-80
2022/03/06 05:30:46;;;;;;;26.10;13.50;;;;;;;;;;5073257;28;20111;-79
2022/03/06 05:33:13;;;;;;;25.35;13.85;;;;;;;;;;5073629;28;20525;-80
2022/03/06 05:35:39;;;;;;;27.85;12.80;;;;;;;;;;5072148;28;20024;-80
2022/03/06 05:38:05;;;;;;;26.27;14.10;;;;;;;;;;5072532;28;20025;-79
2022/03/06 05:40:31;;;;;;;27.55;15.38;;;;;;;;;;5072250;28;20025;-79
2022/03/06 05:42:57;;;;;;;26.60;15.00;;;;;;;;;;5071833;28;20086;-79
2022/03/06 05:45:23;;;;;;;27.15;14.25;;;;;;;;;;5072059;28;20032;-79
2022/03/06 05:47:49;;;;;;;26.75;13.02;;;;;;;;;;5073301;28;20047;-79
2022/03/06 05:50:15;;;;;;;30.50;13.98;;;;;;;;;;5073205;28;20043;-79
2022/03/06 05:52:41;;;;;;;26.00;13.45;;;;;;;;;;5071770;28;20025;-79
2022/03/06 05:55:08;;;;;;;26.75;13.35;;;;;;;;;;5073467;28;20097;-79
2022/03/06 05:57:34;;;;;;;29.08;14.07;;;;;;;;;;5071769;28;20025;-79
2022/03/06 06:00:00;;;;;;;28.48;15.80;;;;;;;;;;5073207;28;20074;-79
2022/03/06 06:02:26;;;;;;;30.17;14.80;;;;;;;;;;5071924;28;20024;-79
2022/03/06 06:04:52;;;;;;;28.35;14.70;;;;;;;;;;5071578;28;20032;-79
2022/03/06 06:07:18;;;;;;;24.65;13.73;;;;;;;;;;5072128;28;20036;-79
2022/03/06 06:09:44;;;;;;;28.67;14.70;;;;;;;;;;5073222;28;20024;-79
2022/03/06 06:12:10;;;;;;;29.15;15.40;;;;;;;;;;5071549;28;20043;-79
2022/03/06 06:14:36;;;;;;;33.28;15.77;;;;;;;;;;5073136;28;20025;-80
2022/03/06 06:17:02;;;;;;;26.60;14.63;;;;;;;;;;5072778;28;20021;-79
2022/03/06 06:19:28;;;;;;;30.27;15.77;;;;;;;;;;5073503;28;20378;-79
2022/03/06 06:21:54;;;;;;;31.35;16.13;;;;;;;;;;5095989;28;20028;-79
2022/03/06 06:24:20;;;;;;;32.05;15.43;;;;;;;;;;5097174;28;20035;-79
2022/03/06 06:26:47;;;;;;;31.33;15.35;;;;;;;;;;5097248;28;20017;-79
2022/03/06 06:29:14;;;;;;;26.88;15.32;;;;;;;;;;5097222;28;20055;-79
2022/03/06 06:31:40;;;;;;;28.85;15.95;;;;;;;;;;5095965;28;20115;-79
2022/03/06 06:34:06;;;;;;;33.25;15.60;;;;;;;;;;5097383;28;20043;-79
2022/03/06 06:36:32;;;;;;;30.75;15.57;;;;;;;;;;5077202;28;20451;-79
2022/03/06 06:38:58;;;;;;;28.17;14.55;;;;;;;;;;5095809;28;20020;-79
2022/03/06 06:41:24;;;;;;;27.05;15.23;;;;;;;;;;5097083;28;20035;-79
2022/03/06 06:43:50;;;;;;;25.38;14.90;;;;;;;;;;5096390;28;20024;-79
2022/03/06 06:46:16;;;;;;;37.00;15.77;;;;;;;;;;5095726;28;20085;-79
2022/03/06 06:48:42;;;;;;;28.83;15.20;;;;;;;;;;5078010;28;20052;-79
2022/03/06 06:51:09;;;;;;;25.58;14.38;;;;;;;;;;5096365;28;20030;-79
2022/03/06 06:53:36;;;;;;;28.73;15.70;;;;;;;;;;5096306;28;20031;-79
2022/03/06 06:56:02;;;;;;;29.30;14.50;;;;;;;;;;5096858;28;20031;-79
2022/03/06 06:58:28;;;;;;;29.13;15.35;;;;;;;;;;5095068;28;20386;-79
2022/03/06 07:00:54;;;;;;;28.35;14.80;;;;;;;;;;5096696;28;20040;-79
2022/03/06 07:03:20;;;;;;;27.77;14.65;;;;;;;;;;5096205;28;20023;-79
2022/03/06 07:05:47;;;;;;;27.52;14.63;;;;;;;;;;5096384;28;20032;-79
2022/03/06 07:08:13;;;;;;;28.80;14.98;;;;;;;;;;5096715;28;20077;-79
2022/03/06 07:10:39;;;;;;;23.85;14.43;;;;;;;;;;5096099;28;20039;-79
2022/03/06 07:13:06;;;;;;;28.27;15.32;;;;;;;;;;5096075;28;20023;-79
2022/03/06 07:15:32;;;;;;;26.23;14.30;;;;;;;;;;5096228;28;20032;-79
2022/03/06 07:18:01;;;;;;;24.70;13.02;;;;;;;;;;5096043;28;20026;-79
2022/03/06 07:20:27;;;;;;;24.85;13.75;;;;;;;;;;5096060;28;20046;-79
2022/03/06 07:22:53;;;;;;;25.95;13.48;;;;;;;;;;5094583;28;20040;-79
2022/03/06 07:25:20;;;;;;;24.60;13.13;;;;;;;;;;5096028;28;20516;-79
2022/03/06 07:27:46;;;;;;;22.08;12.75;;;;;;;;;;5095913;28;20474;-79
2022/03/06 07:30:12;;;;;;;21.85;13.10;;;;;;;;;;5096082;28;20127;-79
2022/03/06 07:32:45;;;;;;;25.90;12.75;;;;;;;;;;5095501;28;20020;-80
2022/03/06 07:35:11;;;;;;;23.95;12.95;;;;;;;;;;5074181;28;20053;-79
2022/03/06 07:37:38;;;;;;;21.73;11.75;;;;;;;;;;5092632;28;20429;-79
2022/03/06 07:40:04;;;;;;;18.85;12.15;;;;;;;;;;5095854;28;20036;-79
2022/03/06 07:42:30;;;;;;;25.30;12.00;;;;;;;;;;5094094;28;20028;-79
2022/03/06 07:44:57;;;;;;;26.00;12.40;;;;;;;;;;5095820;28;20081;-79
2022/03/06 07:47:23;;;;;;;24.25;11.57;;;;;;;;;;5095099;28;20513;-79
2022/03/06 07:49:49;;;;;;;18.52;10.57;;;;;;;;;;5095518;28;20077;-79
2022/03/06 07:52:15;;;;;;;18.13;10.88;;;;;;;;;;5094233;28;20127;-79
2022/03/06 07:54:41;;;;;;;18.00;10.13;;;;;;;;;;5095090;28;20173;-79
2022/03/06 07:57:07;;;;;;;20.77;10.90;;;;;;;;;;5095267;28;20107;-79
2022/03/06 07:59:33;;;;;;;20.00;11.05;;;;;;;;;;5095224;28;20078;-79
2022/03/06 08:01:59;;;;;;;15.00;8.90;;;;;;;;;;5095074;28;20021;-79
2022/03/06 08:04:25;;;;;;;18.20;10.30;;;;;;;;;;5095212;28;20032;-79
2022/03/06 08:06:52;;;;;;;16.48;9.90;;;;;;;;;;5094691;28;20480;-79
2022/03/06 08:09:18;;;;;;;17.38;9.50;;;;;;;;;;5094889;28;20319;-78
2022/03/06 08:11:44;;;;;;;18.67;9.65;;;;;;;;;;5094812;28;20016;-79
2022/03/06 08:14:10;;;;;;;15.50;8.60;;;;;;;;;;5094558;28;20016;-78
2022/03/06 08:16:37;;;;;;;13.23;8.20;;;;;;;;;;5094782;28;20350;-79
2022/03/06 08:19:03;;;;;;;13.90;8.35;;;;;;;;;;5094523;28;20539;-79
2022/03/06 08:21:29;;;;;;;13.30;7.57;;;;;;;;;;5093379;28;20371;-78
2022/03/06 08:23:55;;;;;;;13.75;7.80;;;;;;;;;;5093389;28;20085;-78
2022/03/06 08:26:23;;;;;;;15.50;7.90;;;;;;;;;;5092604;28;20031;-78
2022/03/06 08:28:49;;;;;;;14.55;7.85;;;;;;;;;;5094211;28;20107;-78
2022/03/06 08:31:15;;;;;;;10.27;6.90;;;;;;;;;;5094323;28;20066;-78
2022/03/06 08:33:41;;;;;;;13.65;7.03;;;;;;;;;;5089250;28;20024;-78
2022/03/06 08:36:07;;;;;;;11.95;6.95;;;;;;;;;;5092841;28;20031;-78
2022/03/06 08:38:34;;;;;;;14.80;7.00;;;;;;;;;;5094333;28;20053;-78
2022/03/06 08:41:00;;;;;;;11.70;6.63;;;;;;;;;;5093974;28;20031;-78
2022/03/06 08:43:26;;;;;;;12.38;6.40;;;;;;;;;;5094867;28;20028;-78
2022/03/06 08:45:52;;;;;;;9.73;5.55;;;;;;;;;;5092690;28;20105;-77
2022/03/06 08:48:18;;;;;;;10.13;4.68;;;;;;;;;;5080902;28;20051;-79
2022/03/06 08:50:44;;;;;;;8.35;4.85;;;;;;;;;;5094198;28;20109;-78
2022/03/06 08:53:10;;;;;;;10.05;4.88;;;;;;;;;;5094251;28;20051;-79
2022/03/06 08:55:36;;;;;;;9.75;5.00;;;;;;;;;;5094189;28;20434;-79
2022/03/06 08:58:02;;;;;;;10.68;5.03;;;;;;;;;;5093930;28;20355;-79
2022/03/06 09:00:28;;;;;;;7.72;4.85;;;;;;;;;;5094182;28;20028;-79
2022/03/06 09:02:54;;;;;;;7.72;4.28;;;;;;;;;;5093896;28;20443;-79
2022/03/06 09:05:20;;;;;;;7.15;3.92;;;;;;;;;;5093781;28;20020;-79
2022/03/06 09:07:47;;;;;;;7.88;3.65;;;;;;;;;;5094187;28;20028;-79
2022/03/06 09:10:13;;;;;;;7.65;3.08;;;;;;;;;;5092757;28;20024;-79
2022/03/06 09:12:39;;;;;;;9.70;3.30;;;;;;;;;;5093936;28;20017;-79
2022/03/06 09:15:05;;;;;;;9.82;3.33;;;;;;;;;;5093803;28;20039;-79
2022/03/06 09:17:31;;;;;;;7.05;3.42;;;;;;;;;;5092813;28;20031;-75
2022/03/06 09:19:57;;;;;;;5.82;2.95;;;;;;;;;;5092137;28;20451;-76
2022/03/06 09:22:23;;;;;;;5.10;2.85;;;;;;;;;;5092016;28;20036;-76
2022/03/06 09:24:50;;;;;;;5.90;3.00;;;;;;;;;;5091924;28;20551;-76
2022/03/06 09:27:16;;;;;;;6.97;3.17;;;;;;;;;;5092099;28;20016;-76
2022/03/06 09:29:42;;;;;;;5.35;2.80;;;;;;;;;;5091760;28;20108;-76
2022/03/06 09:32:08;;;;;;;6.20;3.08;;;;;;;;;;5089655;28;20095;-75
2022/03/06 09:34:34;;;;;;;7.20;3.25;;;;;;;;;;5092337;28;20024;-76
2022/03/06 09:37:00;;;;;;;5.45;2.63;;;;;;;;;;5092356;28;20150;-76
2022/03/06 09:39:26;;;;;;;8.95;3.38;;;;;;;;;;5092275;28;20059;-76
2022/03/06 09:41:54;;;;;;;6.60;3.08;;;;;;;;;;5092268;28;20039;-75
2022/03/06 09:44:23;;;;;;;6.30;2.97;;;;;;;;;;5091917;28;20020;-76
2022/03/06 09:46:52;;;;;;;7.90;3.40;;;;;;;;;;5088545;28;20087;-76
2022/03/06 09:49:18;;;;;;;5.10;3.15;;;;;;;;;;5071775;28;20044;-76
2022/03/06 09:51:44;;;;;;;6.90;3.30;;;;;;;;;;5070556;28;20435;-76
2022/03/06 09:54:13;;;;;;;6.13;2.78;;;;;;;;;;5076600;28;20039;-75
2022/03/06 09:56:39;;;;;;;6.10;3.20;;;;;;;;;;5090269;28;20016;-77
2022/03/06 09:59:05;;;;;;;8.18;3.20;;;;;;;;;;5091986;28;20039;-75
2022/03/06 10:01:31;;;;;;;6.72;3.20;;;;;;;;;;5091751;28;20028;-76
2022/03/06 10:03:57;;;;;;;7.55;3.33;;;;;;;;;;5091223;28;20041;-76
2022/03/06 10:06:23;;;;;;;6.80;3.20;;;;;;;;;;5091605;28;20063;-76
2022/03/06 10:09:02;;;;;;;7.68;3.30;;;;;;;;;;5091327;28;20028;-76
2022/03/06 10:11:28;;;;;;;7.18;3.40;;;;;;;;;;5088813;28;20035;-77
2022/03/06 10:13:54;;;;;;;6.97;3.97;;;;;;;;;;5090995;28;20016;-77
2022/03/06 10:16:21;;;;;;;8.23;3.70;;;;;;;;;;5090941;28;20020;-76
2022/03/06 10:18:50;;;;;;;9.77;3.50;;;;;;;;;;5089681;28;20043;-76
2022/03/06 10:21:22;;;;;;;6.25;3.45;;;;;;;;;;5089964;28;20047;-76
2022/03/06 10:23:50;;;;;;;5.97;3.70;;;;;;;;;;5090633;28;20024;-76
2022/03/06 10:26:17;;;;;;;10.27;4.22;;;;;;;;;;5091306;28;20477;-76
2022/03/06 10:28:44;;;;;;;5.65;2.88;;;;;;;;;;5089896;28;20035;-76
2022/03/06 10:31:10;;;;;;;5.95;3.30;;;;;;;;;;5089753;28;20381;-76
2022/03/06 10:33:36;;;;;;;6.93;3.60;;;;;;;;;;5091434;28;20020;-76
2022/03/06 10:36:03;;;;;;;7.60;3.40;;;;;;;;;;5091358;28;20035;-76
2022/03/06 10:38:29;;;;;;;8.38;3.78;;;;;;;;;;5091100;28;20016;-76
2022/03/06 10:40:56;;;;;;;6.07;3.40;;;;;;;;;;5091020;28;20557;-76
2022/03/06 10:43:27;;;;;;;6.63;3.67;;;;;;;;;;5090842;28;20020;-77
2022/03/06 10:46:07;;;;;;;7.57;3.47;;;;;;;;;;5090591;28;20055;-76
2022/03/06 10:48:33;;;;;;;7.35;3.97;;;;;;;;;;5088614;28;20173;-77
2022/03/06 10:51:00;;;;;;;7.18;4.57;;;;;;;;;;5090796;28;20079;-77
2022/03/06 10:53:28;;;;;;;7.18;3.85;;;;;;;;;;5089173;28;20431;-76
2022/03/06 10:55:54;;;;;;;7.00;4.10;;;;;;;;;;5088913;28;20398;-76
2022/03/06 10:58:20;;;;;;;8.23;3.30;;;;;;;;;;5089446;28;20020;-75
2022/03/06 11:00:47;;;;;;;6.28;3.42;;;;;;;;;;5091386;28;20028;-76
2022/03/06 11:03:13;;;;;;;6.75;4.03;;;;;;;;;;5091335;28;20032;-76
2022/03/06 11:05:43;;;;;;;6.88;3.92;;;;;;;;;;5091505;28;20470;-76
2022/03/06 11:08:13;;;;;;;8.07;3.55;;;;;;;;;;5094182;28;20024;-76
2022/03/06 11:10:40;;;;;;;6.30;3.92;;;;;;;;;;5095134;28;20051;-75
2022/03/06 11:13:07;;;;;;;6.80;4.30;;;;;;;;;;5095287;28;20370;-76
2022/03/06 11:15:33;;;;;;;8.10;4.30;;;;;;;;;;5094397;28;20058;-76
2022/03/06 11:18:01;;;;;;;5.85;3.80;;;;;;;;;;5096231;28;20029;-80
2022/03/06 11:20:31;;;;;;;7.13;4.28;;;;;;;;;;5095038;28;20415;-80
2022/03/06 11:23:11;;;;;;;10.73;4.53;;;;;;;;;;5085505;28;20052;-79
2022/03/06 11:25:39;;;;;;;7.32;4.60;;;;;;;;;;5075121;28;20028;-80
2022/03/06 11:28:10;;;;;;;6.70;4.13;;;;;;;;;;5086228;28;20380;-77
2022/03/06 11:30:37;;;;;;;8.38;5.20;;;;;;;;;;5096093;28;20107;-77
2022/03/06 11:33:08;;;;;;;8.00;5.13;;;;;;;;;;5095376;28;20089;-77
2022/03/06 11:35:44;;;;;;;8.05;4.93;;;;;;;;;;5090759;28;20012;-78
2022/03/06 11:38:11;;;;;;;9.75;4.60;;;;;;;;;;5094074;28;20024;-78
2022/03/06 11:40:57;;;;;;;9.27;4.82;;;;;;;;;;5095792;28;20153;-78
2022/03/06 11:43:38;;;;;;;6.13;4.10;;;;;;;;;;5095432;28;20078;-80
2022/03/06 11:46:04;;;;;;;7.38;4.53;;;;;;;;;;5094343;28;20024;-79
2022/03/06 11:48:33;;;;;;;7.85;4.82;;;;;;;;;;5092753;28;20391;-79
2022/03/06 11:51:33;;;;;;;9.25;5.13;;;;;;;;;;5095576;28;20068;-79
2022/03/06 11:54:02;;;;;;;7.70;4.82;;;;;;;;;;5016987;28;20065;-79
2022/03/06 11:56:40;;;;;;;9.75;4.78;;;;;;;;;;5015366;28;20035;-75
2022/03/06 11:59:11;;;;;;;9.45;5.70;;;;;;;;;;5031753;28;20029;-75
2022/03/06 12:01:39;;;;;;;7.90;4.68;;;;;;;;;;5031786;28;20098;-75
2022/03/06 12:04:07;;;;;;;6.90;4.57;;;;;;;;;;5011855;28;20048;-75
2022/03/06 12:06:39;;;;;;;7.63;4.80;;;;;;;;;;5020465;28;20037;-75
2022/03/06 12:09:12;;;;;;;7.47;4.47;;;;;;;;;;5014372;28;20026;-75
2022/03/06 12:11:39;;;;;;;7.25;4.75;;;;;;;;;;5022829;28;20034;-76
2022/03/06 12:14:12;;;;;;;8.98;5.38;;;;;;;;;;5013157;28;20121;-74
2022/03/06 12:16:37;;;;;;;;;;;;;;;;;;5031533;28;20042;-75
2022/03/06 12:19:04;;;;;;;8.77;4.90;;;;;;;;;;5030042;28;19956;-75
2022/03/06 12:21:36;;;;;;;6.20;4.40;;;;;;;;;;5031448;28;20044;-75
2022/03/06 12:24:11;;;;;;;7.82;4.63;;;;;;;;;;5031161;28;20041;-75
2022/03/06 12:26:48;;;;;;;8.02;4.32;;;;;;;;;;5031298;28;20579;-75
2022/03/06 12:29:32;;;;;;;8.55;4.97;;;;;;;;;;5046925;28;20042;-75
2022/03/06 12:32:18;;;;;;;7.80;5.18;;;;;;;;;;5073311;28;20036;-75
2022/03/06 12:34:44;;;;;;;6.30;4.28;;;;;;;;;;5073304;28;20032;-75
2022/03/06 12:37:10;;;;;;;8.40;4.60;;;;;;;;;;5073424;28;20021;-75
2022/03/06 12:39:37;;;;;;;6.22;4.30;;;;;;;;;;5073123;28;20016;-75
2022/03/06 12:42:04;;;;;;;7.22;4.32;;;;;;;;;;5073408;28;20131;-75
2022/03/06 12:44:32;;;;;;;7.00;4.40;;;;;;;;;;5078503;28;20509;-75
2022/03/06 12:46:58;;;;;;;7.15;4.15;;;;;;;;;;5093278;28;20028;-75
2022/03/06 12:49:24;;;;;;;9.25;4.60;;;;;;;;;;5093082;28;20128;-75
2022/03/06 12:51:53;;;;;;;7.38;4.03;;;;;;;;;;5093207;28;20123;-75
2022/03/06 12:54:21;;;;;;;8.35;4.10;;;;;;;;;;5093049;28;20528;-75
2022/03/06 12:56:47;;;;;;;6.07;4.20;;;;;;;;;;5093222;28;20386;-75
2022/03/06 12:59:16;;;;;;;7.22;4.45;;;;;;;;;;5093020;28;20028;-75
2022/03/06 13:01:43;;;;;;;7.53;4.13;;;;;;;;;;5093179;28;20024;-75
2022/03/06 13:04:09;;;;;;;6.75;3.80;;;;;;;;;;5092893;28;20028;-75
2022/03/06 13:06:35;;;;;;;7.05;4.20;;;;;;;;;;5092990;28;20024;-75
2022/03/06 13:09:01;;;;;;;6.65;3.90;;;;;;;;;;5092760;28;20092;-75
2022/03/06 13:11:27;;;;;;;8.27;4.07;;;;;;;;;;5092739;28;20099;-75
2022/03/06 13:14:00;;;;;;;6.50;4.22;;;;;;;;;;5092800;28;20061;-75
2022/03/06 13:16:26;;;;;;;6.72;3.47;;;;;;;;;;5092757;28;20050;-75
2022/03/06 13:18:57;;;;;;;6.45;3.75;;;;;;;;;;5092579;28;20024;-76
2022/03/06 13:21:25;;;;;;;10.15;4.90;;;;;;;;;;5092673;28;20531;-75
2022/03/06 13:24:01;;;;;;;6.10;3.55;;;;;;;;;;5092562;28;20024;-75
2022/03/06 13:26:28;;;;;;;7.22;4.05;;;;;;;;;;5092620;28;20024;-75
2022/03/06 13:28:54;;;;;;;7.15;4.00;;;;;;;;;;5092421;28;20035;-75
2022/03/06 13:31:21;;;;;;;7.60;4.10;;;;;;;;;;5092168;28;20035;-75
2022/03/06 13:33:59;;;;;;;10.55;4.13;;;;;;;;;;5091887;28;20028;-75
2022/03/06 13:36:26;;;;;;;8.38;3.95;;;;;;;;;;5091906;28;20050;-76
2022/03/06 13:38:59;;;;;;;9.50;4.15;;;;;;;;;;5091528;28;20163;-76
2022/03/06 13:41:25;;;;;;;8.00;3.92;;;;;;;;;;5091350;28;20470;-76
2022/03/06 13:43:51;;;;;;;6.55;3.88;;;;;;;;;;5091058;28;20044;-76
2022/03/06 13:46:17;;;;;;;7.53;4.22;;;;;;;;;;5091709;28;20020;-75
2022/03/06 13:48:43;;;;;;;6.50;3.88;;;;;;;;;;5091385;28;20063;-76
2022/03/06 13:51:30;;;;;;;8.65;3.58;;;;;;;;;;5091050;28;20039;-76
2022/03/06 13:53:57;;;;;;;7.05;3.40;;;;;;;;;;5093369;28;20024;-76
2022/03/06 13:56:52;;;;;;;5.80;3.33;;;;;;;;;;5091566;28;20477;-76
2022/03/06 13:59:25;;;;;;;8.20;3.65;;;;;;;;;;5028794;28;20057;-77
2022/03/06 14:01:51;;;;;;;4.95;2.92;;;;;;;;;;5029235;28;20034;-77
2022/03/06 14:04:17;;;;;;;4.47;2.95;;;;;;;;;;5029019;28;20086;-76
2022/03/06 14:06:45;;;;;;;4.85;2.58;;;;;;;;;;5029071;28;20398;-75
2022/03/06 14:09:19;;;;;;;4.03;2.50;;;;;;;;;;5028956;28;20033;-75
2022/03/06 14:11:45;;;;;;;6.85;2.65;;;;;;;;;;5028929;28;20033;-75
2022/03/06 14:14:11;;;;;;;6.38;3.03;;;;;;;;;;5029093;28;20183;-75
2022/03/06 14:16:37;;;;;;;6.82;2.60;;;;;;;;;;5028913;28;20037;-75
2022/03/06 14:19:04;;;;;;;6.05;3.15;;;;;;;;;;5029258;28;20040;-76
2022/03/06 14:21:30;;;;;;;6.43;2.80;;;;;;;;;;5029281;28;20502;-78
2022/03/06 14:23:57;;;;;;;5.40;2.90;;;;;;;;;;5029327;28;20041;-77
2022/03/06 14:26:34;;;;;;;3.28;2.65;;;;;;;;;;5029417;28;20057;-77
2022/03/06 14:29:05;;;;;;;4.47;2.10;;;;;;;;;;5033946;28;20049;-77